sensor_id;sensor_type;location;lat;lon;timestamp;P1;durP1;ratioP1;P2;durP2;ratioP2
19235;SDS011;9752;54.270;12.470;2022-07-23T00:01:21;4.90;;;3.27;;
19235;SDS011;9752;54.270;12.470;2022-07-23T00:06:24;4.13;;;3.30;;
19235;SDS011;9752;54.270;12.470;2022-07-23T00:11:28;4.63;;;3.73;;
19235;SDS011;9752;54.270;12.470;2022-07-23T00:16:29;5.50;;;3.70;;
19235;SDS011;9752;54.270;12.470;2022-07-23T00:21:31;6.50;;;3.50;;
19235;SDS011;9752;54.270;12.470;2022-07-23T00:26:34;5.50;;;3.83;;
19235;SDS011;9752;54.270;12.470;2022-07-23T00:31:36;6.40;;;4.23;;
19235;SDS011;9752;54.270;12.470;2022-07-23T00:36:38;5.20;;;3.40;;
19235;SDS011;9752;54.270;12.470;2022-07-23T00:41:42;4.27;;;3.63;;
19235;SDS011;9752;54.270;12.470;2022-07-23T00:46:45;3.60;;;3.30;;
19235;SDS011;9752;54.270;12.470;2022-07-23T00:51:47;4.73;;;3.97;;
19235;SDS011;9752;54.270;12.470;2022-07-23T00:56:51;3.37;;;3.03;;
19235;SDS011;9752;54.270;12.470;2022-07-23T01:01:53;8.00;;;3.90;;
19235;SDS011;9752;54.270;12.470;2022-07-23T01:06:55;6.90;;;4.00;;
19235;SDS011;9752;54.270;12.470;2022-07-23T01:11:58;6.63;;;3.73;;
19235;SDS011;9752;54.270;12.470;2022-07-23T01:17:00;5.20;;;3.70;;
19235;SDS011;9752;54.270;12.470;2022-07-23T01:22:03;5.20;;;4.00;;
19235;SDS011;9752;54.270;12.470;2022-07-23T01:27:07;4.13;;;3.47;;
19235;SDS011;9752;54.270;12.470;2022-07-23T01:32:11;8.63;;;4.37;;
19235;SDS011;9752;54.270;12.470;2022-07-23T01:37:13;4.67;;;3.43;;
19235;SDS011;9752;54.270;12.470;2022-07-23T01:42:16;4.80;;;3.37;;
19235;SDS011;9752;54.270;12.470;2022-07-23T01:47:18;6.13;;;3.50;;
19235;SDS011;9752;54.270;12.470;2022-07-23T01:52:22;3.37;;;3.03;;
19235;SDS011;9752;54.270;12.470;2022-07-23T01:57:25;5.43;;;3.50;;
19235;SDS011;9752;54.270;12.470;2022-07-23T02:02:27;5.23;;;3.10;;
19235;SDS011;9752;54.270;12.470;2022-07-23T02:07:29;3.87;;;3.17;;
19235;SDS011;9752;54.270;12.470;2022-07-23T02:12:34;3.47;;;3.17;;
19235;SDS011;9752;54.270;12.470;2022-07-23T02:17:36;4.33;;;2.80;;
19235;SDS011;9752;54.270;12.470;2022-07-23T02:22:38;7.00;;;3.20;;
19235;SDS011;9752;54.270;12.470;2022-07-23T02:27:41;7.40;;;3.40;;
19235;SDS011;9752;54.270;12.470;2022-07-23T02:32:43;5.67;;;3.60;;
19235;SDS011;9752;54.270;12.470;2022-07-23T02:37:45;5.47;;;2.83;;
19235;SDS011;9752;54.270;12.470;2022-07-23T02:42:49;4.67;;;2.77;;
19235;SDS011;9752;54.270;12.470;2022-07-23T02:47:50;3.70;;;2.70;;
19235;SDS011;9752;54.270;12.470;2022-07-23T02:52:52;4.53;;;3.00;;
19235;SDS011;9752;54.270;12.470;2022-07-23T02:57:55;3.10;;;2.30;;
19235;SDS011;9752;54.270;12.470;2022-07-23T03:02:57;3.07;;;2.77;;
19235;SDS011;9752;54.270;12.470;2022-07-23T03:07:59;3.67;;;2.83;;
19235;SDS011;9752;54.270;12.470;2022-07-23T03:13:03;3.17;;;2.87;;
19235;SDS011;9752;54.270;12.470;2022-07-23T03:18:05;6.10;;;2.60;;
19235;SDS011;9752;54.270;12.470;2022-07-23T03:23:06;2.50;;;2.30;;
19235;SDS011;9752;54.270;12.470;2022-07-23T03:28:09;3.87;;;2.77;;
19235;SDS011;9752;54.270;12.470;2022-07-23T03:33:11;4.87;;;2.20;;
19235;SDS011;9752;54.270;12.470;2022-07-23T03:38:13;5.43;;;2.60;;
19235;SDS011;9752;54.270;12.470;2022-07-23T03:43:17;5.50;;;2.47;;
19235;SDS011;9752;54.270;12.470;2022-07-23T03:48:19;3.90;;;2.20;;
19235;SDS011;9752;54.270;12.470;2022-07-23T03:53:21;4.23;;;2.90;;
19235;SDS011;9752;54.270;12.470;2022-07-23T03:58:24;11.70;;;3.00;;
19235;SDS011;9752;54.270;12.470;2022-07-23T04:03:26;4.53;;;2.73;;
19235;SDS011;9752;54.270;12.470;2022-07-23T04:08:28;4.00;;;2.50;;
19235;SDS011;9752;54.270;12.470;2022-07-23T04:13:33;6.00;;;2.57;;
19235;SDS011;9752;54.270;12.470;2022-07-23T04:18:37;5.73;;;3.40;;
19235;SDS011;9752;54.270;12.470;2022-07-23T04:23:48;4.80;;;2.77;;
19235;SDS011;9752;54.270;12.470;2022-07-23T04:28:51;9.33;;;3.43;;
19235;SDS011;9752;54.270;12.470;2022-07-23T04:33:53;4.83;;;3.00;;
19235;SDS011;9752;54.270;12.470;2022-07-23T04:38:55;5.27;;;2.97;;
19235;SDS011;9752;54.270;12.470;2022-07-23T04:43:59;7.60;;;3.50;;
19235;SDS011;9752;54.270;12.470;2022-07-23T04:49:01;3.30;;;3.00;;
19235;SDS011;9752;54.270;12.470;2022-07-23T04:54:03;2.90;;;2.63;;
19235;SDS011;9752;54.270;12.470;2022-07-23T04:59:07;5.83;;;3.17;;
19235;SDS011;9752;54.270;12.470;2022-07-23T05:04:09;4.00;;;3.10;;
19235;SDS011;9752;54.270;12.470;2022-07-23T05:09:12;15.00;;;3.50;;
19235;SDS011;9752;54.270;12.470;2022-07-23T05:14:16;5.97;;;2.60;;
19235;SDS011;9752;54.270;12.470;2022-07-23T05:19:18;5.97;;;2.83;;
19235;SDS011;9752;54.270;12.470;2022-07-23T05:24:20;5.67;;;3.03;;
19235;SDS011;9752;54.270;12.470;2022-07-23T05:29:25;4.37;;;2.57;;
19235;SDS011;9752;54.270;12.470;2022-07-23T05:34:26;5.27;;;2.60;;
19235;SDS011;9752;54.270;12.470;2022-07-23T05:39:29;6.67;;;2.73;;
19235;SDS011;9752;54.270;12.470;2022-07-23T05:44:32;4.57;;;2.57;;
19235;SDS011;9752;54.270;12.470;2022-07-23T05:49:34;4.00;;;2.50;;
19235;SDS011;9752;54.270;12.470;2022-07-23T05:54:57;5.47;;;2.47;;
19235;SDS011;9752;54.270;12.470;2022-07-23T06:00:01;2.93;;;2.50;;
19235;SDS011;9752;54.270;12.470;2022-07-23T06:05:14;11.67;;;3.07;;
19235;SDS011;9752;54.270;12.470;2022-07-23T06:10:18;7.23;;;2.33;;
19235;SDS011;9752;54.270;12.470;2022-07-23T06:15:22;4.70;;;2.40;;
19235;SDS011;9752;54.270;12.470;2022-07-23T06:20:25;6.30;;;2.23;;
19235;SDS011;9752;54.270;12.470;2022-07-23T06:25:26;4.03;;;2.37;;
19235;SDS011;9752;54.270;12.470;2022-07-23T06:30:30;8.73;;;2.63;;
19235;SDS011;9752;54.270;12.470;2022-07-23T06:35:32;6.10;;;2.60;;
19235;SDS011;9752;54.270;12.470;2022-07-23T06:40:34;5.00;;;2.30;;
19235;SDS011;9752;54.270;12.470;2022-07-23T06:45:38;2.70;;;1.90;;
19235;SDS011;9752;54.270;12.470;2022-07-23T06:50:39;5.10;;;1.83;;
19235;SDS011;9752;54.270;12.470;2022-07-23T06:55:41;4.83;;;1.30;;
19235;SDS011;9752;54.270;12.470;2022-07-23T07:00:45;0.90;;;0.80;;
19235;SDS011;9752;54.270;12.470;2022-07-23T07:05:46;0.87;;;0.87;;
19235;SDS011;9752;54.270;12.470;2022-07-23T07:10:49;1.33;;;1.20;;
19235;SDS011;9752;54.270;12.470;2022-07-23T07:15:53;3.10;;;1.20;;
19235;SDS011;9752;54.270;12.470;2022-07-23T07:20:54;3.17;;;1.57;;
19235;SDS011;9752;54.270;12.470;2022-07-23T07:25:56;5.13;;;1.60;;
19235;SDS011;9752;54.270;12.470;2022-07-23T07:30:59;2.50;;;1.57;;
19235;SDS011;9752;54.270;12.470;2022-07-23T07:36:01;2.57;;;1.60;;
19235;SDS011;9752;54.270;12.470;2022-07-23T07:41:04;2.83;;;0.90;;
19235;SDS011;9752;54.270;12.470;2022-07-23T07:46:07;2.53;;;1.23;;
19235;SDS011;9752;54.270;12.470;2022-07-23T07:51:10;3.13;;;1.07;;
19235;SDS011;9752;54.270;12.470;2022-07-23T07:56:11;1.83;;;0.83;;
19235;SDS011;9752;54.270;12.470;2022-07-23T08:01:15;3.73;;;0.97;;
19235;SDS011;9752;54.270;12.470;2022-07-23T08:06:17;3.57;;;0.90;;
19235;SDS011;9752;54.270;12.470;2022-07-23T08:11:19;5.10;;;1.23;;
19235;SDS011;9752;54.270;12.470;2022-07-23T08:16:22;3.40;;;0.97;;
19235;SDS011;9752;54.270;12.470;2022-07-23T08:21:23;3.43;;;0.90;;
19235;SDS011;9752;54.270;12.470;2022-07-23T08:26:25;4.00;;;0.83;;
19235;SDS011;9752;54.270;12.470;2022-07-23T08:31:28;2.20;;;1.30;;
19235;SDS011;9752;54.270;12.470;2022-07-23T08:36:33;3.63;;;1.50;;
19235;SDS011;9752;54.270;12.470;2022-07-23T08:41:34;3.33;;;1.10;;
19235;SDS011;9752;54.270;12.470;2022-07-23T08:46:38;1.30;;;1.13;;
19235;SDS011;9752;54.270;12.470;2022-07-23T08:51:40;1.20;;;0.90;;
19235;SDS011;9752;54.270;12.470;2022-07-23T08:56:42;2.00;;;1.10;;
19235;SDS011;9752;54.270;12.470;2022-07-23T09:01:46;1.90;;;1.23;;
19235;SDS011;9752;54.270;12.470;2022-07-23T09:06:47;2.20;;;0.90;;
19235;SDS011;9752;54.270;12.470;2022-07-23T09:12:01;3.30;;;1.30;;
19235;SDS011;9752;54.270;12.470;2022-07-23T09:17:09;4.10;;;1.63;;
19235;SDS011;9752;54.270;12.470;2022-07-23T09:22:21;1.33;;;1.23;;
19235;SDS011;9752;54.270;12.470;2022-07-23T09:27:26;2.90;;;1.30;;
19235;SDS011;9752;54.270;12.470;2022-07-23T09:33:07;2.70;;;1.40;;
19235;SDS011;9752;54.270;12.470;2022-07-23T09:38:10;1.03;;;1.00;;
19235;SDS011;9752;54.270;12.470;2022-07-23T09:43:12;4.07;;;1.03;;
19235;SDS011;9752;54.270;12.470;2022-07-23T09:48:15;3.00;;;1.37;;
19235;SDS011;9752;54.270;12.470;2022-07-23T09:53:23;4.97;;;1.03;;
19235;SDS011;9752;54.270;12.470;2022-07-23T09:58:26;1.00;;;1.00;;
19235;SDS011;9752;54.270;12.470;2022-07-23T10:03:29;2.20;;;1.40;;
19235;SDS011;9752;54.270;12.470;2022-07-23T10:09:08;3.90;;;1.93;;
19235;SDS011;9752;54.270;12.470;2022-07-23T10:14:33;1.20;;;1.03;;
19235;SDS011;9752;54.270;12.470;2022-07-23T10:19:40;1.73;;;0.80;;
19235;SDS011;9752;54.270;12.470;2022-07-23T10:24:50;2.60;;;1.50;;
19235;SDS011;9752;54.270;12.470;2022-07-23T10:30:00;0.97;;;0.97;;
19235;SDS011;9752;54.270;12.470;2022-07-23T10:35:09;3.13;;;1.03;;
19235;SDS011;9752;54.270;12.470;2022-07-23T10:40:21;2.33;;;0.80;;
19235;SDS011;9752;54.270;12.470;2022-07-23T10:45:28;2.30;;;0.80;;
19235;SDS011;9752;54.270;12.470;2022-07-23T10:50:33;1.63;;;1.30;;
19235;SDS011;9752;54.270;12.470;2022-07-23T10:55:39;2.00;;;1.03;;
19235;SDS011;9752;54.270;12.470;2022-07-23T11:00:43;1.60;;;1.03;;
19235;SDS011;9752;54.270;12.470;2022-07-23T11:05:46;1.87;;;1.27;;
19235;SDS011;9752;54.270;12.470;2022-07-23T11:10:51;2.60;;;1.30;;
19235;SDS011;9752;54.270;12.470;2022-07-23T11:16:03;3.63;;;1.10;;
19235;SDS011;9752;54.270;12.470;2022-07-23T11:27:05;1.30;;;1.20;;
19235;SDS011;9752;54.270;12.470;2022-07-23T11:32:08;1.87;;;1.40;;
19235;SDS011;9752;54.270;12.470;2022-07-23T11:37:29;5.63;;;1.50;;
19235;SDS011;9752;54.270;12.470;2022-07-23T11:42:39;2.73;;;1.60;;
19235;SDS011;9752;54.270;12.470;2022-07-23T11:47:50;2.83;;;1.40;;
19235;SDS011;9752;54.270;12.470;2022-07-23T11:52:52;3.63;;;1.60;;
19235;SDS011;9752;54.270;12.470;2022-07-23T11:57:55;1.53;;;1.43;;
19235;SDS011;9752;54.270;12.470;2022-07-23T12:02:58;2.57;;;1.87;;
19235;SDS011;9752;54.270;12.470;2022-07-23T12:08:02;5.43;;;1.87;;
19235;SDS011;9752;54.270;12.470;2022-07-23T12:13:08;4.13;;;1.80;;
19235;SDS011;9752;54.270;12.470;2022-07-23T12:18:12;2.57;;;1.60;;
19235;SDS011;9752;54.270;12.470;2022-07-23T12:23:17;2.27;;;1.60;;
19235;SDS011;9752;54.270;12.470;2022-07-23T12:28:26;2.80;;;1.87;;
19235;SDS011;9752;54.270;12.470;2022-07-23T12:33:30;4.67;;;1.83;;
19235;SDS011;9752;54.270;12.470;2022-07-23T12:38:36;4.20;;;1.90;;
19235;SDS011;9752;54.270;12.470;2022-07-23T12:43:42;1.47;;;1.20;;
19235;SDS011;9752;54.270;12.470;2022-07-23T12:48:50;3.20;;;1.23;;
19235;SDS011;9752;54.270;12.470;2022-07-23T12:53:53;2.73;;;1.70;;
19235;SDS011;9752;54.270;12.470;2022-07-23T12:58:58;4.30;;;1.70;;
19235;SDS011;9752;54.270;12.470;2022-07-23T13:04:07;3.77;;;1.63;;
19235;SDS011;9752;54.270;12.470;2022-07-23T13:09:10;3.77;;;1.40;;
19235;SDS011;9752;54.270;12.470;2022-07-23T13:14:15;4.83;;;1.83;;
19235;SDS011;9752;54.270;12.470;2022-07-23T13:19:18;1.97;;;1.40;;
19235;SDS011;9752;54.270;12.470;2022-07-23T13:24:22;3.80;;;2.23;;
19235;SDS011;9752;54.270;12.470;2022-07-23T13:29:26;4.03;;;1.60;;
19235;SDS011;9752;54.270;12.470;2022-07-23T13:34:27;2.80;;;1.53;;
19235;SDS011;9752;54.270;12.470;2022-07-23T13:39:30;1.97;;;1.30;;
19235;SDS011;9752;54.270;12.470;2022-07-23T13:44:33;1.80;;;1.20;;
19235;SDS011;9752;54.270;12.470;2022-07-23T13:49:35;2.73;;;1.30;;
19235;SDS011;9752;54.270;12.470;2022-07-23T13:54:37;1.67;;;1.07;;
19235;SDS011;9752;54.270;12.470;2022-07-23T13:59:40;3.80;;;1.57;;
19235;SDS011;9752;54.270;12.470;2022-07-23T14:04:41;2.10;;;1.57;;
19235;SDS011;9752;54.270;12.470;2022-07-23T14:09:44;4.83;;;1.33;;
19235;SDS011;9752;54.270;12.470;2022-07-23T14:14:47;3.43;;;1.60;;
19235;SDS011;9752;54.270;12.470;2022-07-23T14:19:49;5.07;;;1.80;;
19235;SDS011;9752;54.270;12.470;2022-07-23T14:24:51;3.63;;;2.60;;
19235;SDS011;9752;54.270;12.470;2022-07-23T14:29:54;4.67;;;2.40;;
19235;SDS011;9752;54.270;12.470;2022-07-23T14:34:57;5.20;;;2.20;;
19235;SDS011;9752;54.270;12.470;2022-07-23T14:39:59;6.60;;;2.80;;
19235;SDS011;9752;54.270;12.470;2022-07-23T14:45:02;3.80;;;2.17;;
19235;SDS011;9752;54.270;12.470;2022-07-23T14:50:05;6.30;;;1.93;;
19235;SDS011;9752;54.270;12.470;2022-07-23T14:55:08;4.67;;;1.90;;
19235;SDS011;9752;54.270;12.470;2022-07-23T15:00:12;7.13;;;1.90;;
19235;SDS011;9752;54.270;12.470;2022-07-23T15:05:14;4.37;;;2.00;;
19235;SDS011;9752;54.270;12.470;2022-07-23T15:10:16;4.60;;;1.90;;
19235;SDS011;9752;54.270;12.470;2022-07-23T15:15:19;3.43;;;1.50;;
19235;SDS011;9752;54.270;12.470;2022-07-23T15:20:21;3.90;;;2.13;;
19235;SDS011;9752;54.270;12.470;2022-07-23T15:25:23;4.43;;;1.63;;
19235;SDS011;9752;54.270;12.470;2022-07-23T15:30:26;5.00;;;2.00;;
19235;SDS011;9752;54.270;12.470;2022-07-23T15:35:30;5.03;;;1.63;;
19235;SDS011;9752;54.270;12.470;2022-07-23T15:40:32;7.17;;;2.13;;
19235;SDS011;9752;54.270;12.470;2022-07-23T15:45:35;3.03;;;2.13;;
19235;SDS011;9752;54.270;12.470;2022-07-23T15:50:37;4.33;;;2.00;;
19235;SDS011;9752;54.270;12.470;2022-07-23T15:55:38;8.10;;;2.40;;
19235;SDS011;9752;54.270;12.470;2022-07-23T16:00:42;7.33;;;2.27;;
19235;SDS011;9752;54.270;12.470;2022-07-23T16:05:44;7.80;;;2.70;;
19235;SDS011;9752;54.270;12.470;2022-07-23T16:10:46;6.50;;;2.57;;
19235;SDS011;9752;54.270;12.470;2022-07-23T16:15:49;3.77;;;1.90;;
19235;SDS011;9752;54.270;12.470;2022-07-23T16:20:51;4.20;;;2.23;;
19235;SDS011;9752;54.270;12.470;2022-07-23T16:25:54;7.67;;;2.30;;
19235;SDS011;9752;54.270;12.470;2022-07-23T16:30:57;13.10;;;2.77;;
19235;SDS011;9752;54.270;12.470;2022-07-23T16:35:59;6.33;;;2.33;;
19235;SDS011;9752;54.270;12.470;2022-07-23T16:41:01;5.43;;;2.17;;
19235;SDS011;9752;54.270;12.470;2022-07-23T16:46:04;3.27;;;2.60;;
19235;SDS011;9752;54.270;12.470;2022-07-23T16:51:08;11.10;;;4.17;;
19235;SDS011;9752;54.270;12.470;2022-07-23T16:56:10;7.43;;;2.73;;
19235;SDS011;9752;54.270;12.470;2022-07-23T17:01:13;10.87;;;2.67;;
19235;SDS011;9752;54.270;12.470;2022-07-23T17:06:15;9.93;;;2.47;;
19235;SDS011;9752;54.270;12.470;2022-07-23T17:11:16;6.00;;;2.60;;
19235;SDS011;9752;54.270;12.470;2022-07-23T17:16:19;6.37;;;2.23;;
19235;SDS011;9752;54.270;12.470;2022-07-23T17:21:21;9.13;;;2.53;;
19235;SDS011;9752;54.270;12.470;2022-07-23T17:26:24;5.67;;;1.67;;
19235;SDS011;9752;54.270;12.470;2022-07-23T17:31:28;5.07;;;2.17;;
19235;SDS011;9752;54.270;12.470;2022-07-23T17:36:29;3.47;;;2.17;;
19235;SDS011;9752;54.270;12.470;2022-07-23T17:41:32;5.23;;;2.30;;
19235;SDS011;9752;54.270;12.470;2022-07-23T17:46:35;3.47;;;1.73;;
19235;SDS011;9752;54.270;12.470;2022-07-23T17:51:37;4.43;;;2.07;;
19235;SDS011;9752;54.270;12.470;2022-07-23T17:56:39;5.93;;;2.73;;
19235;SDS011;9752;54.270;12.470;2022-07-23T18:01:42;7.03;;;2.47;;
19235;SDS011;9752;54.270;12.470;2022-07-23T18:06:44;6.77;;;3.37;;
19235;SDS011;9752;54.270;12.470;2022-07-23T18:11:46;4.23;;;1.97;;
19235;SDS011;9752;54.270;12.470;2022-07-23T18:16:50;4.67;;;2.33;;
19235;SDS011;9752;54.270;12.470;2022-07-23T18:21:51;6.80;;;2.23;;
19235;SDS011;9752;54.270;12.470;2022-07-23T18:26:53;6.57;;;2.50;;
19235;SDS011;9752;54.270;12.470;2022-07-23T18:31:56;6.97;;;2.53;;
19235;SDS011;9752;54.270;12.470;2022-07-23T18:36:58;6.43;;;2.77;;
19235;SDS011;9752;54.270;12.470;2022-07-23T18:42:00;7.57;;;2.70;;
19235;SDS011;9752;54.270;12.470;2022-07-23T18:47:05;7.30;;;2.63;;
19235;SDS011;9752;54.270;12.470;2022-07-23T18:52:07;4.60;;;2.23;;
19235;SDS011;9752;54.270;12.470;2022-07-23T18:57:09;4.57;;;2.20;;
19235;SDS011;9752;54.270;12.470;2022-07-23T19:02:12;4.20;;;2.10;;
19235;SDS011;9752;54.270;12.470;2022-07-23T19:07:14;4.40;;;2.30;;
19235;SDS011;9752;54.270;12.470;2022-07-23T19:12:16;2.67;;;2.10;;
19235;SDS011;9752;54.270;12.470;2022-07-23T19:17:19;5.67;;;2.30;;
19235;SDS011;9752;54.270;12.470;2022-07-23T19:22:21;3.57;;;1.87;;
19235;SDS011;9752;54.270;12.470;2022-07-23T19:27:23;4.60;;;2.37;;
19235;SDS011;9752;54.270;12.470;2022-07-23T19:32:26;6.30;;;2.20;;
19235;SDS011;9752;54.270;12.470;2022-07-23T19:37:28;5.17;;;2.50;;
19235;SDS011;9752;54.270;12.470;2022-07-23T19:42:30;3.70;;;2.10;;
19235;SDS011;9752;54.270;12.470;2022-07-23T19:47:33;6.50;;;2.63;;
19235;SDS011;9752;54.270;12.470;2022-07-23T19:52:36;3.73;;;2.03;;
19235;SDS011;9752;54.270;12.470;2022-07-23T19:57:38;4.97;;;2.13;;
19235;SDS011;9752;54.270;12.470;2022-07-23T20:02:42;6.87;;;2.97;;
19235;SDS011;9752;54.270;12.470;2022-07-23T20:07:44;3.97;;;2.50;;
19235;SDS011;9752;54.270;12.470;2022-07-23T20:12:45;6.73;;;2.47;;
19235;SDS011;9752;54.270;12.470;2022-07-23T20:17:49;8.37;;;2.27;;
19235;SDS011;9752;54.270;12.470;2022-07-23T20:22:51;8.63;;;2.57;;
19235;SDS011;9752;54.270;12.470;2022-07-23T20:27:52;5.93;;;2.50;;
19235;SDS011;9752;54.270;12.470;2022-07-23T20:32:57;5.97;;;2.47;;
19235;SDS011;9752;54.270;12.470;2022-07-23T20:37:59;6.93;;;2.43;;
19235;SDS011;9752;54.270;12.470;2022-07-23T20:43:00;3.27;;;2.27;;
19235;SDS011;9752;54.270;12.470;2022-07-23T20:48:04;5.53;;;2.17;;
19235;SDS011;9752;54.270;12.470;2022-07-23T20:53:06;4.43;;;2.67;;
19235;SDS011;9752;54.270;12.470;2022-07-23T20:58:09;5.53;;;2.20;;
19235;SDS011;9752;54.270;12.470;2022-07-23T21:03:12;5.70;;;2.30;;
19235;SDS011;9752;54.270;12.470;2022-07-23T21:08:14;4.13;;;2.70;;
19235;SDS011;9752;54.270;12.470;2022-07-23T21:13:16;2.97;;;1.73;;
19235;SDS011;9752;54.270;12.470;2022-07-23T21:18:19;11.13;;;2.70;;
19235;SDS011;9752;54.270;12.470;2022-07-23T21:23:21;6.93;;;2.33;;
19235;SDS011;9752;54.270;12.470;2022-07-23T21:28:23;6.43;;;2.20;;
19235;SDS011;9752;54.270;12.470;2022-07-23T21:33:26;5.87;;;2.27;;
19235;SDS011;9752;54.270;12.470;2022-07-23T21:38:28;7.13;;;2.40;;
19235;SDS011;9752;54.270;12.470;2022-07-23T21:43:29;5.63;;;2.00;;
19235;SDS011;9752;54.270;12.470;2022-07-23T21:48:32;4.17;;;2.37;;
19235;SDS011;9752;54.270;12.470;2022-07-23T21:53:34;4.43;;;2.20;;
19235;SDS011;9752;54.270;12.470;2022-07-23T21:58:36;5.83;;;2.33;;
19235;SDS011;9752;54.270;12.470;2022-07-23T22:03:39;7.23;;;2.93;;
19235;SDS011;9752;54.270;12.470;2022-07-23T22:08:41;4.10;;;2.43;;
19235;SDS011;9752;54.270;12.470;2022-07-23T22:13:42;5.83;;;2.50;;
19235;SDS011;9752;54.270;12.470;2022-07-23T22:18:46;3.57;;;2.40;;
19235;SDS011;9752;54.270;12.470;2022-07-23T22:23:47;3.90;;;2.13;;
19235;SDS011;9752;54.270;12.470;2022-07-23T22:28:50;2.60;;;2.40;;
19235;SDS011;9752;54.270;12.470;2022-07-23T22:33:53;4.07;;;2.27;;
19235;SDS011;9752;54.270;12.470;2022-07-23T22:38:55;4.93;;;2.30;;
19235;SDS011;9752;54.270;12.470;2022-07-23T22:43:56;3.40;;;2.33;;
19235;SDS011;9752;54.270;12.470;2022-07-23T22:49:00;3.17;;;2.20;;
19235;SDS011;9752;54.270;12.470;2022-07-23T22:54:01;2.23;;;2.00;;
19235;SDS011;9752;54.270;12.470;2022-07-23T22:59:03;6.37;;;2.40;;
19235;SDS011;9752;54.270;12.470;2022-07-23T23:04:06;3.83;;;2.53;;
19235;SDS011;9752;54.270;12.470;2022-07-23T23:09:08;4.20;;;1.87;;
19235;SDS011;9752;54.270;12.470;2022-07-23T23:14:10;4.13;;;2.03;;
19235;SDS011;9752;54.270;12.470;2022-07-23T23:19:13;5.53;;;2.77;;
19235;SDS011;9752;54.270;12.470;2022-07-23T23:24:15;3.03;;;2.13;;
19235;SDS011;9752;54.270;12.470;2022-07-23T23:29:17;3.43;;;2.50;;
19235;SDS011;9752;54.270;12.470;2022-07-23T23:34:20;4.37;;;2.20;;
19235;SDS011;9752;54.270;12.470;2022-07-23T23:39:22;4.93;;;2.37;;
19235;SDS011;9752;54.270;12.470;2022-07-23T23:44:23;4.07;;;2.20;;
19235;SDS011;9752;54.270;12.470;2022-07-23T23:49:27;4.57;;;2.10;;
19235;SDS011;9752;54.270;12.470;2022-07-23T23:54:28;4.37;;;2.03;;
19235;SDS011;9752;54.270;12.470;2022-07-23T23:59:30;6.03;;;2.30;;
